createdAt,value
2018-05-15T00:00:57.665Z,0.00
2018-05-15T00:01:58.606Z,0.00
2018-05-15T00:02:57.579Z,0.00
2018-05-15T00:03:58.608Z,0.00
2018-05-15T00:04:58.146Z,0.00
2018-05-15T00:05:58.315Z,0.00
2018-05-15T00:06:57.501Z,0.00
2018-05-15T00:07:58.608Z,0.00
2018-05-15T00:08:57.413Z,0.00
2018-05-15T00:09:57.625Z,0.00
2018-05-15T00:10:57.427Z,0.00
2018-05-15T00:11:57.638Z,0.00
2018-05-15T00:12:57.343Z,0.00
2018-05-15T00:13:58.113Z,0.00
2018-05-15T00:14:57.351Z,0.00
2018-05-15T00:15:57.459Z,0.00
2018-05-15T00:16:57.258Z,0.00
2018-05-15T00:17:57.473Z,0.00
2018-05-15T00:18:57.275Z,0.00
2018-05-15T00:19:57.485Z,0.00
2018-05-15T00:20:58.154Z,0.00
2018-05-15T00:21:57.393Z,0.00
2018-05-15T00:22:57.194Z,0.00
2018-05-15T00:23:57.404Z,0.00
2018-05-15T00:24:57.121Z,0.00
2018-05-15T00:25:57.326Z,0.00
2018-05-15T00:26:57.120Z,0.00
2018-05-15T00:27:57.235Z,0.00
2018-05-15T00:28:57.031Z,0.00
2018-05-15T00:29:57.243Z,0.00
2018-05-15T00:30:57.615Z,0.00
2018-05-15T00:31:57.161Z,0.00
2018-05-15T00:32:56.963Z,0.00
2018-05-15T00:33:57.162Z,0.00
2018-05-15T00:34:57.785Z,0.00
2018-05-15T00:35:57.617Z,0.00
2018-05-15T00:36:56.881Z,0.00
2018-05-15T00:37:59.113Z,0.00
2018-05-15T00:38:56.805Z,0.00
2018-05-15T00:39:58.115Z,0.00
2018-05-15T00:40:56.798Z,0.00
2018-05-15T00:41:58.118Z,0.00
2018-05-15T00:42:57.293Z,0.00
2018-05-15T00:43:56.920Z,0.00
2018-05-15T00:44:58.121Z,0.00
2018-05-15T00:45:56.934Z,0.00
2018-05-15T00:46:57.619Z,0.00
2018-05-15T00:47:56.858Z,0.00
2018-05-15T00:48:56.647Z,0.00
2018-05-15T00:49:58.128Z,0.00
2018-05-15T00:50:56.557Z,0.00
2018-05-15T00:51:58.618Z,0.00
2018-05-15T00:52:56.570Z,0.00
2018-05-15T00:53:56.700Z,0.00
2018-05-15T00:54:56.473Z,0.00
2018-05-15T00:55:58.121Z,0.00
2018-05-15T00:56:56.460Z,0.00
2018-05-15T00:57:57.621Z,0.00
2018-05-15T00:58:57.120Z,0.00
2018-05-15T00:59:59.120Z,0.00
2018-05-15T01:00:57.314Z,0.00
2018-05-15T01:01:56.518Z,0.00
2018-05-15T01:02:59.374Z,0.00
2018-05-15T01:03:56.458Z,0.00
2018-05-15T01:04:57.623Z,0.00
2018-05-15T01:05:57.362Z,0.00
2018-05-15T01:06:56.784Z,0.00
2018-05-15T01:07:56.349Z,0.00
2018-05-15T01:08:57.124Z,0.00
2018-05-15T01:09:56.391Z,0.00
2018-05-15T01:10:57.123Z,0.00
2018-05-15T01:11:56.308Z,0.00
2018-05-15T01:12:56.108Z,0.00
2018-05-15T01:13:57.128Z,0.00
2018-05-15T01:14:56.630Z,0.00
2018-05-15T01:15:56.235Z,0.00
2018-05-15T01:16:56.628Z,0.00
2018-05-15T01:17:56.106Z,0.00
2018-05-15T01:18:55.943Z,0.00
2018-05-15T01:19:57.083Z,0.00
2018-05-15T01:20:55.912Z,0.00
2018-05-15T01:21:58.127Z,0.00
2018-05-15T01:22:55.923Z,0.00
2018-05-15T01:23:56.089Z,0.00
2018-05-15T01:24:56.862Z,0.00
2018-05-15T01:25:58.635Z,0.00
2018-05-15T01:26:56.309Z,0.00
2018-05-15T01:27:55.904Z,0.00
2018-05-15T01:28:55.787Z,0.00
2018-05-15T01:29:56.632Z,0.00
2018-05-15T01:30:59.362Z,0.00
2018-05-15T01:31:56.848Z,0.00
2018-05-15T01:32:55.733Z,0.00
2018-05-15T01:33:55.800Z,0.00
2018-05-15T01:34:58.285Z,0.00
2018-05-15T01:35:55.909Z,0.00
2018-05-15T01:36:55.608Z,0.00
2018-05-15T01:37:57.132Z,0.00
2018-05-15T01:38:57.154Z,0.00
2018-05-15T01:39:55.778Z,0.00
2018-05-15T01:40:55.482Z,0.00
2018-05-15T01:42:02.146Z,0.00
2018-05-15T01:42:59.139Z,0.00
2018-05-15T01:43:55.669Z,0.00
2018-05-15T01:44:55.408Z,0.00
2018-05-15T01:45:55.510Z,0.00
2018-05-15T01:46:57.637Z,0.00
2018-05-15T01:47:56.135Z,0.00
2018-05-15T01:48:55.324Z,0.00
2018-05-15T01:49:55.442Z,0.00
2018-05-15T01:50:55.321Z,0.00
2018-05-15T01:51:55.456Z,0.00
2018-05-15T01:52:56.143Z,0.00
2018-05-15T01:53:57.413Z,0.00
2018-05-15T01:54:55.784Z,0.00
2018-05-15T01:55:55.383Z,0.00
2018-05-15T01:56:55.837Z,0.00
2018-05-15T01:57:55.394Z,0.00
2018-05-15T01:58:55.096Z,0.00
2018-05-15T01:59:55.303Z,0.00
2018-05-15T02:00:55.081Z,0.00
2018-05-15T02:01:56.137Z,0.00
2018-05-15T02:02:55.021Z,0.00
2018-05-15T02:03:56.139Z,0.00
2018-05-15T02:04:56.656Z,0.00
2018-05-15T02:05:55.149Z,0.00
2018-05-15T02:06:54.947Z,0.00
2018-05-15T02:07:55.156Z,0.00
2018-05-15T02:08:54.954Z,0.00
2018-05-15T02:09:55.067Z,0.00
2018-05-15T02:10:54.835Z,0.00
2018-05-15T02:11:55.020Z,0.00
2018-05-15T02:12:54.783Z,0.00
2018-05-15T02:13:54.993Z,0.00
2018-05-15T02:14:54.795Z,0.00
2018-05-15T02:15:55.007Z,0.00
2018-05-15T02:16:56.143Z,0.00
2018-05-15T02:17:54.913Z,0.00
2018-05-15T02:18:55.333Z,0.00
2018-05-15T02:19:55.645Z,0.00
2018-05-15T02:20:55.147Z,0.00
2018-05-15T02:21:54.842Z,0.00
2018-05-15T02:22:56.146Z,0.00
2018-05-15T02:23:54.759Z,0.00
2018-05-15T02:24:54.556Z,0.00
2018-05-15T02:25:54.768Z,0.00
2018-05-15T02:26:54.460Z,0.00
2018-05-15T02:27:56.147Z,0.00
2018-05-15T02:28:55.657Z,0.00
2018-05-15T02:29:55.617Z,0.00
2018-05-15T02:30:54.392Z,0.00
2018-05-15T02:31:55.590Z,0.00
2018-05-15T02:32:54.406Z,0.00
2018-05-15T02:33:54.516Z,0.00
2018-05-15T02:34:54.321Z,0.00
2018-05-15T02:35:55.152Z,0.00
2018-05-15T02:36:55.649Z,0.00
2018-05-15T02:37:55.649Z,0.00
2018-05-15T02:38:56.666Z,0.00
2018-05-15T02:39:54.451Z,0.00
2018-05-15T02:40:54.654Z,0.00
2018-05-15T02:41:55.152Z,0.00
2018-05-15T02:42:54.165Z,0.00
2018-05-15T02:43:56.651Z,0.00
2018-05-15T02:44:54.075Z,0.00
2018-05-15T02:45:55.172Z,0.00
2018-05-15T02:46:54.089Z,0.00
2018-05-15T02:47:55.120Z,0.00
2018-05-15T02:48:54.007Z,0.00
2018-05-15T02:49:55.038Z,0.00
2018-05-15T02:50:54.017Z,0.00
2018-05-15T02:51:56.991Z,0.00
2018-05-15T02:52:54.655Z,0.00
2018-05-15T02:53:55.677Z,0.00
2018-05-15T02:54:54.866Z,0.00
2018-05-15T02:55:54.048Z,0.00
2018-05-15T02:56:53.855Z,0.00
2018-05-15T02:57:54.066Z,0.00
2018-05-15T02:58:54.383Z,0.00
2018-05-15T02:59:53.973Z,0.00
2018-05-15T03:00:55.314Z,0.00
2018-05-15T03:01:54.672Z,0.00
2018-05-15T03:02:54.156Z,0.00
2018-05-15T03:03:53.857Z,0.00
2018-05-15T03:04:53.706Z,0.00
2018-05-15T03:05:53.815Z,0.00
2018-05-15T03:06:54.658Z,0.00
2018-05-15T03:07:53.829Z,0.00
2018-05-15T03:08:53.629Z,0.00
2018-05-15T03:09:53.741Z,0.00
2018-05-15T03:10:53.537Z,0.00
2018-05-15T03:11:53.765Z,0.00
2018-05-15T03:12:54.166Z,0.00
2018-05-15T03:13:53.663Z,0.00
2018-05-15T03:14:53.458Z,0.00
2018-05-15T03:15:54.593Z,0.00
2018-05-15T03:16:54.161Z,4.00
2018-05-15T03:17:56.661Z,0.00
2018-05-15T03:18:53.387Z,0.00
2018-05-15T03:19:55.163Z,4.00
2018-05-15T03:20:53.295Z,4.00
2018-05-15T03:21:53.506Z,0.00
2018-05-15T03:22:53.307Z,4.00
2018-05-15T03:23:54.183Z,0.00
2018-05-15T03:24:53.229Z,4.00
2018-05-15T03:25:55.665Z,4.00
2018-05-15T03:26:53.135Z,8.00
2018-05-15T03:27:53.247Z,8.00
2018-05-15T03:28:53.098Z,8.00
2018-05-15T03:29:54.668Z,8.00
2018-05-15T03:30:53.045Z,8.00
2018-05-15T03:31:53.696Z,12.00
2018-05-15T03:32:53.281Z,12.00
2018-05-15T03:33:52.982Z,16.00
2018-05-15T03:34:54.678Z,16.00
2018-05-15T03:35:52.991Z,16.00
2018-05-15T03:36:52.951Z,20.00
2018-05-15T03:37:52.878Z,24.00
2018-05-15T03:38:53.113Z,24.00
2018-05-15T03:39:52.894Z,28.00
2018-05-15T03:40:53.954Z,32.00
2018-05-15T03:41:54.208Z,32.00
2018-05-15T03:42:53.040Z,36.00
2018-05-15T03:43:52.741Z,44.00
2018-05-15T03:44:53.674Z,48.00
2018-05-15T03:45:52.751Z,48.00
2018-05-15T03:46:54.671Z,52.00
2018-05-15T03:47:52.667Z,60.00
2018-05-15T03:48:53.869Z,64.00
2018-05-15T03:49:52.638Z,68.00
2018-05-15T03:50:54.679Z,76.00
2018-05-15T03:51:52.594Z,80.00
2018-05-15T03:52:53.688Z,88.00
2018-05-15T03:53:53.219Z,92.00
2018-05-15T03:54:54.358Z,100.00
2018-05-15T03:55:52.516Z,108.00
2018-05-15T03:56:53.696Z,116.00
2018-05-15T03:57:52.478Z,120.00
2018-05-15T03:58:52.584Z,128.00
2018-05-15T03:59:53.171Z,136.00
2018-05-15T04:00:56.182Z,140.00
2018-05-15T04:01:53.173Z,152.00
2018-05-15T04:02:52.562Z,160.00
2018-05-15T04:03:53.174Z,164.00
2018-05-15T04:04:52.577Z,172.00
2018-05-15T04:05:53.676Z,184.00
2018-05-15T04:06:52.491Z,192.00
2018-05-15T04:07:52.295Z,200.00
2018-05-15T04:08:52.450Z,204.00
2018-05-15T04:09:52.903Z,212.00
2018-05-15T04:10:53.755Z,224.00
2018-05-15T04:11:52.677Z,228.00
2018-05-15T04:12:54.676Z,236.00
2018-05-15T04:13:53.710Z,248.00
2018-05-15T04:14:54.677Z,256.00
2018-05-15T04:15:52.040Z,264.00
2018-05-15T04:16:53.190Z,272.00
2018-05-15T04:17:51.999Z,280.00
2018-05-15T04:18:52.721Z,288.00
2018-05-15T04:19:52.683Z,300.00
2018-05-15T04:20:52.681Z,304.00
2018-05-15T04:21:51.880Z,316.00
2018-05-15T04:22:53.825Z,320.00
2018-05-15T04:23:52.682Z,332.00
2018-05-15T04:24:52.696Z,336.00
2018-05-15T04:25:55.182Z,344.00
2018-05-15T04:26:52.012Z,356.00
2018-05-15T04:27:52.384Z,360.00
2018-05-15T04:28:52.023Z,368.00
2018-05-15T04:29:51.777Z,376.00
2018-05-15T04:30:51.933Z,384.00
2018-05-15T04:31:51.736Z,392.00
2018-05-15T04:32:51.953Z,400.00
2018-05-15T04:33:51.642Z,408.00
2018-05-15T04:34:52.682Z,416.00
2018-05-15T04:35:52.185Z,424.00
2018-05-15T04:36:51.826Z,432.00
2018-05-15T04:37:52.391Z,440.00
2018-05-15T04:38:52.686Z,444.00
2018-05-15T04:39:51.533Z,452.00
2018-05-15T04:40:52.183Z,460.00
2018-05-15T04:41:52.689Z,464.00
2018-05-15T04:42:53.190Z,472.00
2018-05-15T04:43:54.417Z,480.00
2018-05-15T04:44:53.206Z,488.00
2018-05-15T04:45:51.427Z,492.00
2018-05-15T04:46:51.890Z,500.00
2018-05-15T04:47:51.333Z,504.00
2018-05-15T04:48:52.187Z,516.00
2018-05-15T04:49:51.249Z,520.00
2018-05-15T04:50:52.188Z,528.00
2018-05-15T04:51:51.259Z,532.00
2018-05-15T04:52:51.408Z,544.00
2018-05-15T04:53:52.190Z,548.00
2018-05-15T04:54:51.893Z,552.00
2018-05-15T04:55:51.901Z,560.00
2018-05-15T04:56:51.332Z,568.00
2018-05-15T04:57:51.099Z,572.00
2018-05-15T04:58:51.307Z,580.00
2018-05-15T04:59:51.009Z,588.00
2018-05-15T05:00:52.701Z,592.00
2018-05-15T05:01:52.755Z,600.00
2018-05-15T05:02:52.194Z,604.00
2018-05-15T05:03:51.690Z,608.00
2018-05-15T05:04:51.694Z,616.00
2018-05-15T05:05:51.694Z,620.00
2018-05-15T05:06:51.622Z,628.00
2018-05-15T05:07:51.721Z,636.00
2018-05-15T05:08:52.194Z,640.00
2018-05-15T05:09:52.192Z,652.00
2018-05-15T05:10:51.696Z,660.00
2018-05-15T05:11:50.826Z,668.00
2018-05-15T05:12:52.210Z,672.00
2018-05-15T05:13:52.694Z,680.00
2018-05-15T05:14:52.194Z,684.00
2018-05-15T05:15:51.200Z,696.00
2018-05-15T05:16:51.697Z,700.00
2018-05-15T05:17:50.623Z,708.00
2018-05-15T05:18:50.779Z,712.00
2018-05-15T05:19:51.214Z,716.00
2018-05-15T05:20:51.695Z,724.00
2018-05-15T05:21:51.386Z,728.00
2018-05-15T05:22:50.779Z,740.00
2018-05-15T05:23:52.201Z,744.00
2018-05-15T05:24:52.198Z,748.00
2018-05-15T05:25:51.201Z,756.00
2018-05-15T05:26:50.769Z,764.00
2018-05-15T05:27:51.202Z,768.00
2018-05-15T05:28:51.200Z,768.00
2018-05-15T05:29:51.199Z,776.00
2018-05-15T05:30:51.199Z,784.00
2018-05-15T05:31:50.304Z,784.00
2018-05-15T05:32:51.202Z,792.00
2018-05-15T05:33:51.203Z,796.00
2018-05-15T05:34:50.486Z,804.00
2018-05-15T05:35:51.202Z,808.00
2018-05-15T05:36:51.201Z,808.00
2018-05-15T05:37:50.154Z,808.00
2018-05-15T05:38:51.202Z,800.00
2018-05-15T05:39:50.702Z,800.00
2018-05-15T05:40:50.703Z,796.00
2018-05-15T05:41:51.203Z,800.00
2018-05-15T05:42:50.069Z,804.00
2018-05-15T05:43:51.203Z,808.00
2018-05-15T05:44:50.726Z,816.00
2018-05-15T05:45:51.735Z,816.00
2018-05-15T05:46:50.703Z,824.00
2018-05-15T05:47:50.215Z,824.00
2018-05-15T05:48:49.912Z,828.00
2018-05-15T05:49:51.032Z,832.00
2018-05-15T05:50:50.707Z,836.00
2018-05-15T05:51:50.754Z,840.00
2018-05-15T05:52:50.721Z,844.00
2018-05-15T05:53:50.726Z,868.00
2018-05-15T05:54:50.706Z,852.00
2018-05-15T05:55:50.370Z,852.00
2018-05-15T05:56:52.731Z,860.00
2018-05-15T05:57:50.706Z,868.00
2018-05-15T05:58:50.708Z,868.00
2018-05-15T05:59:49.676Z,876.00
2018-05-15T06:00:50.709Z,880.00
2018-05-15T06:01:50.209Z,884.00
2018-05-15T06:02:49.695Z,884.00
2018-05-15T06:03:50.210Z,888.00
2018-05-15T06:04:49.813Z,888.00
2018-05-15T06:05:49.610Z,888.00
2018-05-15T06:06:50.221Z,892.00
2018-05-15T06:07:49.521Z,892.00
2018-05-15T06:08:50.215Z,896.00
2018-05-15T06:09:49.542Z,896.00
2018-05-15T06:10:50.217Z,900.00
2018-05-15T06:11:50.214Z,908.00
2018-05-15T06:12:51.210Z,912.00
2018-05-15T06:13:50.212Z,916.00
2018-05-15T06:14:50.215Z,916.00
2018-05-15T06:15:49.376Z,916.00
2018-05-15T06:16:49.577Z,924.00
2018-05-15T06:17:50.212Z,924.00
2018-05-15T06:18:50.221Z,928.00
2018-05-15T06:19:49.288Z,928.00
2018-05-15T06:20:50.440Z,932.00
2018-05-15T06:21:49.713Z,932.00
2018-05-15T06:22:49.409Z,936.00
2018-05-15T06:23:49.229Z,940.00
2018-05-15T06:24:50.213Z,944.00
2018-05-15T06:25:49.716Z,948.00
2018-05-15T06:26:50.228Z,952.00
2018-05-15T06:27:49.716Z,956.00
2018-05-15T06:28:50.214Z,956.00
2018-05-15T06:29:49.718Z,964.00
2018-05-15T06:30:49.255Z,968.00
2018-05-15T06:31:49.717Z,976.00
2018-05-15T06:32:49.718Z,980.00
2018-05-15T06:33:50.218Z,984.00
2018-05-15T06:34:49.718Z,988.00
2018-05-15T06:35:48.883Z,992.00
2018-05-15T06:36:49.389Z,996.00
2018-05-15T06:37:50.235Z,1000.00
2018-05-15T06:38:49.032Z,1004.00
2018-05-15T06:39:48.825Z,1016.00
2018-05-15T06:40:50.739Z,1020.00
2018-05-15T06:41:48.833Z,1024.00
2018-05-15T06:42:48.947Z,1024.00
2018-05-15T06:43:48.749Z,1028.00
2018-05-15T06:44:48.974Z,1032.00
2018-05-15T06:45:48.726Z,1036.00
2018-05-15T06:46:48.770Z,1044.00
2018-05-15T06:47:49.226Z,1048.00
2018-05-15T06:48:49.722Z,1052.00
2018-05-15T06:49:49.374Z,1064.00
2018-05-15T06:50:49.223Z,1064.00
2018-05-15T06:51:49.225Z,1076.00
2018-05-15T06:52:48.775Z,1092.00
2018-05-15T06:53:48.512Z,1096.00
2018-05-15T06:54:48.725Z,1096.00
2018-05-15T06:55:48.520Z,1100.00
2018-05-15T06:56:51.229Z,1132.00
2018-05-15T06:57:48.498Z,1120.00
2018-05-15T06:58:48.711Z,1124.00
2018-05-15T06:59:48.452Z,1152.00
2018-05-15T07:00:49.512Z,1120.00
2018-05-15T07:01:48.366Z,1124.00
2018-05-15T07:02:48.531Z,1128.00
2018-05-15T07:03:48.886Z,1140.00
2018-05-15T07:04:48.244Z,1148.00
2018-05-15T07:05:48.165Z,1156.00
2018-05-15T07:06:49.177Z,1164.00
2018-05-15T07:07:48.184Z,1172.00
2018-05-15T07:08:48.166Z,1176.00
2018-05-15T07:09:48.077Z,1204.00
2018-05-15T07:10:48.075Z,1180.00
2018-05-15T07:11:48.037Z,1192.00
2018-05-15T07:12:48.089Z,1188.00
2018-05-15T07:13:47.996Z,1196.00
2018-05-15T07:14:47.999Z,1208.00
2018-05-15T07:15:47.958Z,1212.00
2018-05-15T07:16:48.016Z,1220.00
2018-05-15T07:17:47.913Z,1224.00
2018-05-15T07:18:47.921Z,1224.00
2018-05-15T07:19:47.871Z,1236.00
2018-05-15T07:20:47.934Z,1248.00
2018-05-15T07:21:47.832Z,1248.00
2018-05-15T07:22:47.845Z,1260.00
2018-05-15T07:23:47.792Z,1264.00
2018-05-15T07:24:47.857Z,1276.00
2018-05-15T07:25:47.757Z,1284.00
2018-05-15T07:26:47.771Z,1300.00
2018-05-15T07:27:47.709Z,1308.00
2018-05-15T07:28:47.784Z,1316.00
2018-05-15T07:29:47.665Z,1320.00
2018-05-15T07:30:47.691Z,1332.00
2018-05-15T07:31:47.628Z,1336.00
2018-05-15T07:32:47.706Z,1356.00
2018-05-15T07:33:47.586Z,1340.00
2018-05-15T07:34:47.613Z,1344.00
2018-05-15T07:35:47.550Z,1352.00
2018-05-15T07:36:47.628Z,1360.00
2018-05-15T07:37:47.507Z,1364.00
2018-05-15T07:38:47.538Z,1368.00
2018-05-15T07:39:47.469Z,1376.00
2018-05-15T07:40:47.558Z,1380.00
2018-05-15T07:41:47.427Z,1384.00
2018-05-15T07:42:47.463Z,1396.00
2018-05-15T07:43:47.387Z,1400.00
2018-05-15T07:44:47.473Z,1404.00
2018-05-15T07:45:47.346Z,1404.00
2018-05-15T07:46:47.378Z,1404.00
2018-05-15T07:47:47.305Z,1408.00
2018-05-15T07:48:47.393Z,1412.00
2018-05-15T07:49:47.267Z,1420.00
2018-05-15T07:50:47.308Z,1424.00
2018-05-15T07:51:47.221Z,1428.00
2018-05-15T07:52:47.318Z,1432.00
2018-05-15T07:53:47.239Z,1440.00
2018-05-15T07:54:47.233Z,1448.00
2018-05-15T07:55:47.145Z,1452.00
2018-05-15T07:56:47.238Z,1452.00
2018-05-15T07:57:47.108Z,1456.00
2018-05-15T07:58:47.147Z,1464.00
2018-05-15T07:59:47.067Z,1468.00
2018-05-15T08:00:47.159Z,1472.00
2018-05-15T08:01:47.035Z,1484.00
2018-05-15T08:02:47.070Z,1480.00
2018-05-15T08:03:46.992Z,1480.00
2018-05-15T08:04:47.083Z,1492.00
2018-05-15T08:05:46.949Z,1488.00
2018-05-15T08:06:46.994Z,1504.00
2018-05-15T08:07:46.920Z,1492.00
2018-05-15T08:08:47.004Z,1500.00
2018-05-15T08:09:46.872Z,1496.00
2018-05-15T08:10:46.919Z,1500.00
2018-05-15T08:11:46.834Z,1508.00
2018-05-15T08:12:46.927Z,1512.00
2018-05-15T08:13:46.795Z,1520.00
2018-05-15T08:14:46.837Z,1528.00
2018-05-15T08:15:46.756Z,1536.00
2018-05-15T08:16:46.854Z,1544.00
2018-05-15T08:17:46.717Z,1552.00
2018-05-15T08:18:46.764Z,1560.00
2018-05-15T08:19:46.684Z,1564.00
2018-05-15T08:20:46.772Z,1580.00
2018-05-15T08:21:46.640Z,1584.00
2018-05-15T08:22:46.682Z,1588.00
2018-05-15T08:23:46.602Z,1596.00
2018-05-15T08:24:46.694Z,1608.00
2018-05-15T08:25:46.564Z,1628.00
2018-05-15T08:26:46.606Z,1648.00
2018-05-15T08:27:46.533Z,1668.00
2018-05-15T08:28:46.618Z,1680.00
2018-05-15T08:29:46.490Z,1688.00
2018-05-15T08:30:46.548Z,1696.00
2018-05-15T08:31:46.454Z,1704.00
2018-05-15T08:32:46.539Z,1720.00
2018-05-15T08:33:46.410Z,1736.00
2018-05-15T08:34:46.451Z,1768.00
2018-05-15T08:35:46.376Z,1764.00
2018-05-15T08:36:46.463Z,1780.00
2018-05-15T08:37:46.339Z,1788.00
2018-05-15T08:38:46.373Z,1800.00
2018-05-15T08:39:46.300Z,1812.00
2018-05-15T08:40:46.388Z,1828.00
2018-05-15T08:41:46.263Z,1836.00
2018-05-15T08:42:46.296Z,1852.00
2018-05-15T08:43:46.225Z,1860.00
2018-05-15T08:44:46.318Z,1908.00
2018-05-15T08:45:46.191Z,1864.00
2018-05-15T08:46:46.221Z,1868.00
2018-05-15T08:47:46.156Z,1872.00
2018-05-15T08:48:46.232Z,1876.00
2018-05-15T08:49:46.113Z,1884.00
2018-05-15T08:50:46.093Z,1892.00
2018-05-15T08:51:46.223Z,1888.00
2018-05-15T08:52:46.057Z,1900.00
2018-05-15T08:53:46.137Z,1900.00
2018-05-15T08:54:46.021Z,1908.00
2018-05-15T08:55:46.013Z,1920.00
2018-05-15T08:56:46.155Z,1924.00
2018-05-15T08:57:45.967Z,1924.00
2018-05-15T08:58:46.063Z,1944.00
2018-05-15T08:59:45.932Z,1944.00
2018-05-15T09:00:46.077Z,1944.00
2018-05-15T09:01:45.903Z,1948.00
2018-05-15T09:02:45.915Z,1960.00
2018-05-15T09:03:45.862Z,1976.00
2018-05-15T09:04:46.000Z,1980.00
2018-05-15T09:05:45.827Z,1996.00
2018-05-15T09:06:45.915Z,2008.00
2018-05-15T09:07:45.788Z,2016.00
2018-05-15T09:08:45.844Z,2024.00
2018-05-15T09:09:45.754Z,2032.00
2018-05-15T09:10:45.839Z,2044.00
2018-05-15T09:11:45.718Z,2064.00
2018-05-15T09:12:45.851Z,2068.00
2018-05-15T09:13:45.683Z,2072.00
2018-05-15T09:14:45.765Z,2092.00
2018-05-15T09:15:45.693Z,2120.00
2018-05-15T09:16:45.779Z,2132.00
2018-05-15T09:17:45.615Z,2160.00
2018-05-15T09:18:45.793Z,2172.00
2018-05-15T09:19:45.577Z,2376.00
2018-05-15T09:20:45.704Z,2188.00
2018-05-15T09:21:45.543Z,2212.00
2018-05-15T09:22:46.644Z,2216.00
2018-05-15T09:23:45.509Z,2236.00
2018-05-15T09:24:45.631Z,2244.00
2018-05-15T09:25:45.474Z,2244.00
2018-05-15T09:26:45.645Z,2248.00
2018-05-15T09:27:45.440Z,2272.00
2018-05-15T09:28:45.556Z,2292.00
2018-05-15T09:29:45.409Z,2296.00
2018-05-15T09:30:45.571Z,2312.00
2018-05-15T09:31:45.376Z,2324.00
2018-05-15T09:32:45.484Z,2328.00
2018-05-15T09:33:45.345Z,2344.00
2018-05-15T09:34:45.501Z,2368.00
2018-05-15T09:35:45.312Z,2388.00
2018-05-15T09:36:45.510Z,2388.00
2018-05-15T09:37:45.285Z,2412.00
2018-05-15T09:38:45.423Z,2380.00
2018-05-15T09:39:45.250Z,2448.00
2018-05-15T09:40:45.337Z,2480.00
2018-05-15T09:41:45.212Z,2516.00
2018-05-15T09:42:45.246Z,2528.00
2018-05-15T09:43:45.182Z,2520.00
2018-05-15T09:44:45.272Z,2532.00
2018-05-15T09:45:45.151Z,2552.00
2018-05-15T09:46:46.200Z,2556.00
2018-05-15T09:47:45.120Z,2556.00
2018-05-15T09:48:45.187Z,2564.00
2018-05-15T09:49:45.088Z,2572.00
2018-05-15T09:50:45.201Z,2580.00
2018-05-15T09:51:45.060Z,2588.00
2018-05-15T09:52:45.115Z,2588.00
2018-05-15T09:53:45.027Z,2596.00
2018-05-15T09:54:45.126Z,2596.00
2018-05-15T09:55:44.994Z,2596.00
2018-05-15T09:56:45.038Z,2604.00
2018-05-15T09:57:44.967Z,2600.00
2018-05-15T09:58:45.052Z,2596.00
2018-05-15T09:59:44.936Z,2588.00
2018-05-15T10:00:44.964Z,2600.00
2018-05-15T10:01:44.923Z,2612.00
2018-05-15T10:02:44.897Z,2604.00
2018-05-15T10:03:44.984Z,2600.00
2018-05-15T10:04:44.859Z,2608.00
2018-05-15T10:05:44.897Z,2620.00
2018-05-15T10:06:44.835Z,2616.00
2018-05-15T10:07:44.875Z,2612.00
2018-05-15T10:08:44.814Z,2608.00
2018-05-15T10:09:44.783Z,2604.00
2018-05-15T10:10:44.830Z,2604.00
2018-05-15T10:11:44.762Z,2592.00
2018-05-15T10:12:44.845Z,2612.00
2018-05-15T10:13:44.725Z,2624.00
2018-05-15T10:14:44.755Z,2640.00
2018-05-15T10:15:44.698Z,2636.00
2018-05-15T10:16:44.768Z,2660.00
2018-05-15T10:17:44.675Z,2660.00
2018-05-15T10:18:44.680Z,2668.00
2018-05-15T10:19:44.643Z,2668.00
2018-05-15T10:20:44.699Z,2680.00
2018-05-15T10:21:44.616Z,2684.00
2018-05-15T10:22:44.729Z,2664.00
2018-05-15T10:23:44.576Z,2680.00
2018-05-15T10:24:44.626Z,2680.00
2018-05-15T10:25:44.560Z,2696.00
2018-05-15T10:26:44.636Z,2688.00
2018-05-15T10:27:44.530Z,2696.00
2018-05-15T10:28:44.549Z,2700.00
2018-05-15T10:29:44.510Z,2712.00
2018-05-15T10:30:44.563Z,2728.00
2018-05-15T10:31:44.473Z,2752.00
2018-05-15T10:32:44.475Z,2760.00
2018-05-15T10:33:44.442Z,2772.00
2018-05-15T10:34:44.493Z,2800.00
2018-05-15T10:35:44.419Z,2828.00
2018-05-15T10:36:44.501Z,2828.00
2018-05-15T10:37:44.388Z,2840.00
2018-05-15T10:38:44.470Z,2848.00
2018-05-15T10:39:44.360Z,2856.00
2018-05-15T10:40:44.444Z,2872.00
2018-05-15T10:41:44.335Z,2904.00
2018-05-15T10:42:44.337Z,2904.00
2018-05-15T10:43:44.305Z,2928.00
2018-05-15T10:44:44.351Z,2900.00
2018-05-15T10:45:44.279Z,2948.00
2018-05-15T10:46:44.366Z,2892.00
2018-05-15T10:47:44.255Z,2796.00
2018-05-15T10:48:44.239Z,2756.00
2018-05-15T10:49:44.396Z,2540.00
2018-05-15T10:50:44.215Z,2584.00
2018-05-15T10:51:44.298Z,2764.00
2018-05-15T10:52:44.189Z,2796.00
2018-05-15T10:53:44.177Z,3008.00
2018-05-15T10:54:44.168Z,3112.00
2018-05-15T10:55:44.329Z,3104.00
2018-05-15T10:56:44.138Z,3032.00
2018-05-15T10:57:44.244Z,3092.00
2018-05-15T10:58:44.109Z,3144.00
2018-05-15T10:59:44.262Z,3132.00
2018-05-15T11:00:44.078Z,3188.00
2018-05-15T11:01:44.184Z,3248.00
2018-05-15T11:02:44.062Z,3296.00
2018-05-15T11:03:44.185Z,3316.00
2018-05-15T11:04:44.036Z,3324.00
2018-05-15T11:05:44.196Z,3336.00
2018-05-15T11:06:44.008Z,3364.00
2018-05-15T11:07:44.109Z,3376.00
2018-05-15T11:08:43.983Z,3372.00
2018-05-15T11:09:44.122Z,3388.00
2018-05-15T11:10:43.959Z,3408.00
2018-05-15T11:11:44.140Z,3420.00
2018-05-15T11:12:44.005Z,3440.00
2018-05-15T11:13:44.050Z,3428.00
2018-05-15T11:14:43.909Z,3440.00
2018-05-15T11:15:44.063Z,3436.00
2018-05-15T11:16:43.882Z,3436.00
2018-05-15T11:17:44.086Z,3444.00
2018-05-15T11:18:43.881Z,3468.00
2018-05-15T11:19:43.988Z,3496.00
2018-05-15T11:20:43.860Z,3520.00
2018-05-15T11:21:44.002Z,3544.00
2018-05-15T11:22:43.815Z,3548.00
2018-05-15T11:23:43.913Z,3576.00
2018-05-15T11:24:43.782Z,3568.00
2018-05-15T11:25:43.928Z,3564.00
2018-05-15T11:26:43.762Z,3568.00
2018-05-15T11:27:43.941Z,3568.00
2018-05-15T11:28:43.742Z,3596.00
2018-05-15T11:29:43.853Z,3604.00
2018-05-15T11:30:43.717Z,3652.00
2018-05-15T11:31:43.866Z,3712.00
2018-05-15T11:32:43.693Z,2840.00
2018-05-15T11:33:43.883Z,3772.00
2018-05-15T11:34:43.669Z,3360.00
2018-05-15T11:35:43.840Z,3460.00
2018-05-15T11:36:43.644Z,3692.00
2018-05-15T11:37:43.808Z,3828.00
2018-05-15T11:38:43.637Z,3892.00
2018-05-15T11:39:43.830Z,3900.00
2018-05-15T11:40:43.599Z,3928.00
2018-05-15T11:41:43.751Z,3936.00
2018-05-15T11:42:43.579Z,3900.00
2018-05-15T11:43:43.655Z,3832.00
2018-05-15T11:44:43.634Z,3824.00
2018-05-15T11:45:43.662Z,3888.00
2018-05-15T11:46:43.527Z,3812.00
2018-05-15T11:47:43.761Z,3876.00
2018-05-15T11:48:44.203Z,3956.00
2018-05-15T11:49:44.184Z,4000.00
2018-05-15T11:50:44.316Z,4008.00
2018-05-15T11:51:44.269Z,4016.00
2018-05-15T11:52:44.051Z,4044.00
2018-05-15T11:53:43.521Z,4076.00
2018-05-15T11:54:43.438Z,4084.00
2018-05-15T11:55:43.505Z,4076.00
2018-05-15T11:56:43.419Z,4072.00
2018-05-15T11:57:43.543Z,4012.00
2018-05-15T11:58:43.402Z,4068.00
2018-05-15T11:59:43.444Z,4072.00
2018-05-15T12:00:43.373Z,4112.00
2018-05-15T12:01:43.467Z,4140.00
2018-05-15T12:02:43.366Z,4180.00
2018-05-15T12:03:43.556Z,4224.00
2018-05-15T12:04:43.329Z,4248.00
2018-05-15T12:05:43.392Z,4248.00
2018-05-15T12:06:43.309Z,4292.00
2018-05-15T12:07:43.406Z,4340.00
2018-05-15T12:08:43.287Z,4340.00
2018-05-15T12:09:43.425Z,4324.00
2018-05-15T12:10:43.364Z,4308.00
2018-05-15T12:11:43.258Z,4284.00
2018-05-15T12:12:43.247Z,4252.00
2018-05-15T12:13:43.350Z,4224.00
2018-05-15T12:14:43.227Z,4204.00
2018-05-15T12:15:43.259Z,4224.00
2018-05-15T12:16:43.204Z,4280.00
2018-05-15T12:17:43.274Z,4304.00
2018-05-15T12:18:43.187Z,4324.00
2018-05-15T12:19:43.298Z,4328.00
2018-05-15T12:20:43.162Z,4268.00
2018-05-15T12:21:43.199Z,4288.00
2018-05-15T12:22:43.143Z,4256.00
2018-05-15T12:23:43.219Z,4324.00
2018-05-15T12:24:43.121Z,4392.00
2018-05-15T12:25:43.126Z,4404.00
2018-05-15T12:26:43.102Z,4384.00
2018-05-15T12:27:43.323Z,4428.00
2018-05-15T12:28:43.081Z,4416.00
2018-05-15T12:29:43.198Z,4372.00
2018-05-15T12:30:43.060Z,4308.00
2018-05-15T12:31:43.066Z,4276.00